sensor_id;sensor_type;location;lat;lon;timestamp;P1;durP1;ratioP1;P2;durP2;ratioP2
13706;SDS011;6925;47.816;13.072;2022-11-14T00:00:43;3.85;;;1.88;;
13706;SDS011;6925;47.816;13.072;2022-11-14T00:03:11;3.40;;;1.80;;
13706;SDS011;6925;47.816;13.072;2022-11-14T00:05:39;3.13;;;1.55;;
13706;SDS011;6925;47.816;13.072;2022-11-14T00:08:10;4.07;;;1.88;;
13706;SDS011;6925;47.816;13.072;2022-11-14T00:10:43;2.95;;;1.73;;
13706;SDS011;6925;47.816;13.072;2022-11-14T00:13:11;3.65;;;1.95;;
13706;SDS011;6925;47.816;13.072;2022-11-14T00:15:39;3.13;;;1.70;;
13706;SDS011;6925;47.816;13.072;2022-11-14T00:18:06;4.13;;;1.98;;
13706;SDS011;6925;47.816;13.072;2022-11-14T00:20:34;5.53;;;2.08;;
13706;SDS011;6925;47.816;13.072;2022-11-14T00:23:01;3.05;;;1.60;;
13706;SDS011;6925;47.816;13.072;2022-11-14T00:25:29;4.10;;;1.67;;
13706;SDS011;6925;47.816;13.072;2022-11-14T00:27:59;3.40;;;1.55;;
13706;SDS011;6925;47.816;13.072;2022-11-14T00:30:26;3.35;;;1.50;;
13706;SDS011;6925;47.816;13.072;2022-11-14T00:32:53;3.75;;;1.77;;
13706;SDS011;6925;47.816;13.072;2022-11-14T00:35:21;2.70;;;1.45;;
13706;SDS011;6925;47.816;13.072;2022-11-14T00:37:49;4.50;;;1.55;;
13706;SDS011;6925;47.816;13.072;2022-11-14T00:40:16;3.70;;;1.80;;
13706;SDS011;6925;47.816;13.072;2022-11-14T00:42:43;3.33;;;1.40;;
13706;SDS011;6925;47.816;13.072;2022-11-14T00:45:12;3.80;;;1.70;;
13706;SDS011;6925;47.816;13.072;2022-11-14T00:47:39;3.88;;;1.70;;
13706;SDS011;6925;47.816;13.072;2022-11-14T00:50:07;2.63;;;1.30;;
13706;SDS011;6925;47.816;13.072;2022-11-14T00:52:35;2.65;;;1.40;;
13706;SDS011;6925;47.816;13.072;2022-11-14T00:55:03;2.60;;;1.33;;
13706;SDS011;6925;47.816;13.072;2022-11-14T00:57:30;3.78;;;1.70;;
13706;SDS011;6925;47.816;13.072;2022-11-14T01:00:01;3.20;;;1.50;;
13706;SDS011;6925;47.816;13.072;2022-11-14T01:02:30;3.47;;;1.90;;
13706;SDS011;6925;47.816;13.072;2022-11-14T01:04:58;2.55;;;1.27;;
13706;SDS011;6925;47.816;13.072;2022-11-14T01:07:27;5.20;;;1.70;;
13706;SDS011;6925;47.816;13.072;2022-11-14T01:09:55;3.47;;;1.70;;
13706;SDS011;6925;47.816;13.072;2022-11-14T01:12:22;3.40;;;1.25;;
13706;SDS011;6925;47.816;13.072;2022-11-14T01:14:49;2.90;;;1.48;;
13706;SDS011;6925;47.816;13.072;2022-11-14T01:17:17;2.72;;;1.42;;
13706;SDS011;6925;47.816;13.072;2022-11-14T01:19:45;2.58;;;1.35;;
13706;SDS011;6925;47.816;13.072;2022-11-14T01:22:13;3.15;;;1.55;;
13706;SDS011;6925;47.816;13.072;2022-11-14T01:27:07;2.75;;;1.40;;
13706;SDS011;6925;47.816;13.072;2022-11-14T01:29:35;3.00;;;1.50;;
13706;SDS011;6925;47.816;13.072;2022-11-14T01:34:30;2.95;;;1.45;;
13706;SDS011;6925;47.816;13.072;2022-11-14T01:36:59;2.88;;;1.75;;
13706;SDS011;6925;47.816;13.072;2022-11-14T01:39:26;4.15;;;1.50;;
13706;SDS011;6925;47.816;13.072;2022-11-14T01:41:54;3.10;;;1.48;;
13706;SDS011;6925;47.816;13.072;2022-11-14T01:47:06;3.13;;;1.50;;
13706;SDS011;6925;47.816;13.072;2022-11-14T01:49:37;3.55;;;1.50;;
13706;SDS011;6925;47.816;13.072;2022-11-14T01:52:09;3.83;;;1.50;;
13706;SDS011;6925;47.816;13.072;2022-11-14T01:54:41;2.67;;;1.40;;
13706;SDS011;6925;47.816;13.072;2022-11-14T01:57:11;3.00;;;1.30;;
13706;SDS011;6925;47.816;13.072;2022-11-14T01:59:42;2.67;;;1.30;;
13706;SDS011;6925;47.816;13.072;2022-11-14T02:02:15;3.20;;;1.20;;
13706;SDS011;6925;47.816;13.072;2022-11-14T02:04:46;4.05;;;1.27;;
13706;SDS011;6925;47.816;13.072;2022-11-14T02:07:18;2.08;;;1.08;;
13706;SDS011;6925;47.816;13.072;2022-11-14T02:09:46;3.33;;;1.70;;
13706;SDS011;6925;47.816;13.072;2022-11-14T02:12:15;2.53;;;1.30;;
13706;SDS011;6925;47.816;13.072;2022-11-14T02:14:45;4.55;;;1.40;;
13706;SDS011;6925;47.816;13.072;2022-11-14T02:17:15;3.75;;;1.27;;
13706;SDS011;6925;47.816;13.072;2022-11-14T02:19:43;2.08;;;0.95;;
13706;SDS011;6925;47.816;13.072;2022-11-14T02:22:15;2.78;;;1.30;;
13706;SDS011;6925;47.816;13.072;2022-11-14T02:24:42;2.55;;;1.33;;
13706;SDS011;6925;47.816;13.072;2022-11-14T02:29:37;2.72;;;1.35;;
13706;SDS011;6925;47.816;13.072;2022-11-14T02:32:05;2.22;;;1.10;;
13706;SDS011;6925;47.816;13.072;2022-11-14T02:34:32;3.20;;;1.40;;
13706;SDS011;6925;47.816;13.072;2022-11-14T02:39:28;3.40;;;1.08;;
13706;SDS011;6925;47.816;13.072;2022-11-14T02:41:55;2.70;;;1.00;;
13706;SDS011;6925;47.816;13.072;2022-11-14T02:44:23;3.20;;;1.35;;
13706;SDS011;6925;47.816;13.072;2022-11-14T02:49:17;2.00;;;1.15;;
13706;SDS011;6925;47.816;13.072;2022-11-14T02:51:44;1.60;;;0.90;;
13706;SDS011;6925;47.816;13.072;2022-11-14T02:54:11;2.13;;;1.02;;
13706;SDS011;6925;47.816;13.072;2022-11-14T02:59:07;2.28;;;0.90;;
13706;SDS011;6925;47.816;13.072;2022-11-14T03:01:34;1.92;;;0.90;;
13706;SDS011;6925;47.816;13.072;2022-11-14T03:06:29;2.13;;;1.00;;
13706;SDS011;6925;47.816;13.072;2022-11-14T03:08:56;2.50;;;1.00;;
13706;SDS011;6925;47.816;13.072;2022-11-14T03:11:24;2.15;;;0.98;;
13706;SDS011;6925;47.816;13.072;2022-11-14T03:16:21;2.60;;;1.20;;
13706;SDS011;6925;47.816;13.072;2022-11-14T03:18:48;2.20;;;1.00;;
13706;SDS011;6925;47.816;13.072;2022-11-14T03:21:16;2.33;;;1.00;;
13706;SDS011;6925;47.816;13.072;2022-11-14T03:23:45;1.20;;;0.77;;
13706;SDS011;6925;47.816;13.072;2022-11-14T03:26:13;2.78;;;0.98;;
13706;SDS011;6925;47.816;13.072;2022-11-14T03:28:41;2.03;;;0.80;;
13706;SDS011;6925;47.816;13.072;2022-11-14T03:31:10;2.58;;;1.00;;
13706;SDS011;6925;47.816;13.072;2022-11-14T03:33:39;3.03;;;1.20;;
13706;SDS011;6925;47.816;13.072;2022-11-14T03:36:07;2.22;;;0.90;;
13706;SDS011;6925;47.816;13.072;2022-11-14T03:38:35;1.60;;;0.77;;
13706;SDS011;6925;47.816;13.072;2022-11-14T03:41:02;1.20;;;0.65;;
13706;SDS011;6925;47.816;13.072;2022-11-14T03:43:30;1.20;;;0.60;;
13706;SDS011;6925;47.816;13.072;2022-11-14T03:45:59;2.05;;;0.80;;
13706;SDS011;6925;47.816;13.072;2022-11-14T03:48:28;1.60;;;0.80;;
13706;SDS011;6925;47.816;13.072;2022-11-14T03:50:56;1.80;;;0.90;;
13706;SDS011;6925;47.816;13.072;2022-11-14T03:53:24;1.92;;;0.90;;
13706;SDS011;6925;47.816;13.072;2022-11-14T03:55:52;1.92;;;0.75;;
13706;SDS011;6925;47.816;13.072;2022-11-14T03:58:20;1.65;;;0.82;;
13706;SDS011;6925;47.816;13.072;2022-11-14T04:00:47;2.38;;;0.95;;
13706;SDS011;6925;47.816;13.072;2022-11-14T04:03:15;1.65;;;1.00;;
13706;SDS011;6925;47.816;13.072;2022-11-14T04:08:11;1.13;;;0.70;;
13706;SDS011;6925;47.816;13.072;2022-11-14T04:13:06;1.73;;;0.90;;
13706;SDS011;6925;47.816;13.072;2022-11-14T04:15:35;1.33;;;0.70;;
13706;SDS011;6925;47.816;13.072;2022-11-14T04:20:30;1.35;;;0.80;;
13706;SDS011;6925;47.816;13.072;2022-11-14T04:22:59;2.67;;;1.17;;
13706;SDS011;6925;47.816;13.072;2022-11-14T04:25:26;1.52;;;0.80;;
13706;SDS011;6925;47.816;13.072;2022-11-14T04:30:21;2.05;;;0.90;;
13706;SDS011;6925;47.816;13.072;2022-11-14T04:35:15;1.55;;;0.80;;
13706;SDS011;6925;47.816;13.072;2022-11-14T04:37:42;2.00;;;0.80;;
13706;SDS011;6925;47.816;13.072;2022-11-14T04:40:11;1.88;;;0.80;;
13706;SDS011;6925;47.816;13.072;2022-11-14T04:42:39;1.70;;;0.77;;
13706;SDS011;6925;47.816;13.072;2022-11-14T04:47:34;2.05;;;0.90;;
13706;SDS011;6925;47.816;13.072;2022-11-14T04:50:02;2.40;;;1.00;;
13706;SDS011;6925;47.816;13.072;2022-11-14T04:52:30;1.85;;;0.80;;
13706;SDS011;6925;47.816;13.072;2022-11-14T04:57:26;2.17;;;1.00;;
13706;SDS011;6925;47.816;13.072;2022-11-14T04:59:53;1.52;;;0.73;;
13706;SDS011;6925;47.816;13.072;2022-11-14T05:04:48;2.20;;;0.93;;
13706;SDS011;6925;47.816;13.072;2022-11-14T05:07:15;2.45;;;1.02;;
13706;SDS011;6925;47.816;13.072;2022-11-14T05:09:42;1.80;;;0.80;;
13706;SDS011;6925;47.816;13.072;2022-11-14T05:12:09;1.65;;;0.70;;
13706;SDS011;6925;47.816;13.072;2022-11-14T05:17:05;3.45;;;0.82;;
13706;SDS011;6925;47.816;13.072;2022-11-14T05:19:32;3.00;;;0.60;;
13706;SDS011;6925;47.816;13.072;2022-11-14T05:21:59;1.92;;;0.95;;
13706;SDS011;6925;47.816;13.072;2022-11-14T05:26:54;2.33;;;1.00;;
13706;SDS011;6925;47.816;13.072;2022-11-14T05:29:24;1.75;;;0.93;;
13706;SDS011;6925;47.816;13.072;2022-11-14T05:31:52;1.60;;;0.80;;
13706;SDS011;6925;47.816;13.072;2022-11-14T05:34:22;2.40;;;0.95;;
13706;SDS011;6925;47.816;13.072;2022-11-14T05:39:16;1.55;;;0.75;;
13706;SDS011;6925;47.816;13.072;2022-11-14T05:41:43;1.83;;;0.90;;
13706;SDS011;6925;47.816;13.072;2022-11-14T05:44:17;1.27;;;0.70;;
13706;SDS011;6925;47.816;13.072;2022-11-14T05:46:44;2.30;;;1.00;;
13706;SDS011;6925;47.816;13.072;2022-11-14T05:49:13;2.00;;;0.85;;
13706;SDS011;6925;47.816;13.072;2022-11-14T05:51:40;1.55;;;0.73;;
13706;SDS011;6925;47.816;13.072;2022-11-14T05:54:08;2.08;;;0.70;;
13706;SDS011;6925;47.816;13.072;2022-11-14T05:56:35;1.85;;;1.08;;
13706;SDS011;6925;47.816;13.072;2022-11-14T06:09:36;3.05;;;1.10;;
13706;SDS011;6925;47.816;13.072;2022-11-14T06:12:04;1.83;;;0.88;;
13706;SDS011;6925;47.816;13.072;2022-11-14T06:14:32;1.90;;;0.98;;
13706;SDS011;6925;47.816;13.072;2022-11-14T06:22:47;1.98;;;0.80;;
13706;SDS011;6925;47.816;13.072;2022-11-14T06:25:16;2.33;;;1.00;;
13706;SDS011;6925;47.816;13.072;2022-11-14T06:27:44;1.48;;;0.77;;
13706;SDS011;6925;47.816;13.072;2022-11-14T06:33:00;1.33;;;0.60;;
13706;SDS011;6925;47.816;13.072;2022-11-14T06:37:58;2.10;;;0.98;;
13706;SDS011;6925;47.816;13.072;2022-11-14T06:40:27;2.10;;;0.68;;
13706;SDS011;6925;47.816;13.072;2022-11-14T06:42:54;3.60;;;1.20;;
13706;SDS011;6925;47.816;13.072;2022-11-14T06:45:22;3.72;;;0.98;;
13706;SDS011;6925;47.816;13.072;2022-11-14T06:47:49;2.38;;;0.88;;
13706;SDS011;6925;47.816;13.072;2022-11-14T06:52:45;2.42;;;0.90;;
13706;SDS011;6925;47.816;13.072;2022-11-14T06:55:12;2.95;;;0.90;;
13706;SDS011;6925;47.816;13.072;2022-11-14T06:57:41;3.45;;;1.40;;
13706;SDS011;6925;47.816;13.072;2022-11-14T07:00:09;2.40;;;1.08;;
13706;SDS011;6925;47.816;13.072;2022-11-14T07:02:37;2.17;;;1.05;;
13706;SDS011;6925;47.816;13.072;2022-11-14T07:05:08;2.33;;;1.10;;
13706;SDS011;6925;47.816;13.072;2022-11-14T07:07:36;1.98;;;0.90;;
13706;SDS011;6925;47.816;13.072;2022-11-14T07:10:05;4.70;;;0.80;;
13706;SDS011;6925;47.816;13.072;2022-11-14T07:12:32;2.03;;;1.00;;
13706;SDS011;6925;47.816;13.072;2022-11-14T07:15:01;3.28;;;1.60;;
13706;SDS011;6925;47.816;13.072;2022-11-14T07:17:30;4.00;;;1.30;;
13706;SDS011;6925;47.816;13.072;2022-11-14T07:20:00;3.28;;;1.35;;
13706;SDS011;6925;47.816;13.072;2022-11-14T07:22:45;2.92;;;0.90;;
13706;SDS011;6925;47.816;13.072;2022-11-14T07:25:22;2.13;;;1.13;;
13706;SDS011;6925;47.816;13.072;2022-11-14T07:28:06;2.67;;;1.17;;
13706;SDS011;6925;47.816;13.072;2022-11-14T07:30:49;2.05;;;1.00;;
13706;SDS011;6925;47.816;13.072;2022-11-14T07:33:19;2.25;;;1.17;;
13706;SDS011;6925;47.816;13.072;2022-11-14T07:35:49;2.55;;;1.10;;
13706;SDS011;6925;47.816;13.072;2022-11-14T07:38:17;2.50;;;1.30;;
13706;SDS011;6925;47.816;13.072;2022-11-14T07:43:18;4.00;;;0.98;;
13706;SDS011;6925;47.816;13.072;2022-11-14T07:45:47;2.13;;;1.05;;
13706;SDS011;6925;47.816;13.072;2022-11-14T07:48:15;2.42;;;1.08;;
13706;SDS011;6925;47.816;13.072;2022-11-14T07:50:43;2.35;;;0.98;;
13706;SDS011;6925;47.816;13.072;2022-11-14T07:53:11;3.25;;;1.17;;
13706;SDS011;6925;47.816;13.072;2022-11-14T07:55:39;3.70;;;1.60;;
13706;SDS011;6925;47.816;13.072;2022-11-14T07:58:07;3.35;;;1.25;;
13706;SDS011;6925;47.816;13.072;2022-11-14T08:00:35;2.42;;;1.20;;
13706;SDS011;6925;47.816;13.072;2022-11-14T08:03:05;2.63;;;1.00;;
13706;SDS011;6925;47.816;13.072;2022-11-14T08:05:33;2.67;;;1.20;;
13706;SDS011;6925;47.816;13.072;2022-11-14T08:08:01;2.50;;;1.05;;
13706;SDS011;6925;47.816;13.072;2022-11-14T08:10:28;3.25;;;1.27;;
13706;SDS011;6925;47.816;13.072;2022-11-14T08:12:59;3.63;;;1.00;;
13706;SDS011;6925;47.816;13.072;2022-11-14T08:15:27;2.53;;;1.50;;
13706;SDS011;6925;47.816;13.072;2022-11-14T08:17:56;5.65;;;1.70;;
13706;SDS011;6925;47.816;13.072;2022-11-14T08:23:00;7.07;;;2.25;;
13706;SDS011;6925;47.816;13.072;2022-11-14T08:25:31;3.67;;;1.48;;
13706;SDS011;6925;47.816;13.072;2022-11-14T08:27:58;4.22;;;1.30;;
13706;SDS011;6925;47.816;13.072;2022-11-14T08:30:31;3.10;;;1.10;;
13706;SDS011;6925;47.816;13.072;2022-11-14T08:33:00;3.10;;;1.00;;
13706;SDS011;6925;47.816;13.072;2022-11-14T08:35:31;2.08;;;0.88;;
13706;SDS011;6925;47.816;13.072;2022-11-14T08:38:00;1.77;;;0.90;;
13706;SDS011;6925;47.816;13.072;2022-11-14T08:40:28;3.58;;;0.95;;
13706;SDS011;6925;47.816;13.072;2022-11-14T08:43:04;2.03;;;0.93;;
13706;SDS011;6925;47.816;13.072;2022-11-14T08:45:36;2.42;;;0.95;;
13706;SDS011;6925;47.816;13.072;2022-11-14T08:51:52;2.70;;;1.35;;
13706;SDS011;6925;47.816;13.072;2022-11-14T08:54:20;3.10;;;0.90;;
13706;SDS011;6925;47.816;13.072;2022-11-14T09:02:22;2.83;;;1.30;;
13706;SDS011;6925;47.816;13.072;2022-11-14T09:04:56;2.08;;;0.80;;
13706;SDS011;6925;47.816;13.072;2022-11-14T09:07:30;2.05;;;0.80;;
13706;SDS011;6925;47.816;13.072;2022-11-14T09:10:05;2.08;;;0.70;;
13706;SDS011;6925;47.816;13.072;2022-11-14T09:18:05;3.67;;;1.48;;
13706;SDS011;6925;47.816;13.072;2022-11-14T09:20:34;4.03;;;1.67;;
13706;SDS011;6925;47.816;13.072;2022-11-14T09:26:04;3.42;;;1.40;;
13706;SDS011;6925;47.816;13.072;2022-11-14T09:28:42;1.92;;;0.85;;
13706;SDS011;6925;47.816;13.072;2022-11-14T09:31:23;2.22;;;0.90;;
13706;SDS011;6925;47.816;13.072;2022-11-14T09:34:07;3.17;;;0.65;;
13706;SDS011;6925;47.816;13.072;2022-11-14T09:36:38;2.88;;;0.90;;
13706;SDS011;6925;47.816;13.072;2022-11-14T09:45:09;2.80;;;0.70;;
13706;SDS011;6925;47.816;13.072;2022-11-14T09:47:43;2.28;;;0.70;;
13706;SDS011;6925;47.816;13.072;2022-11-14T10:14:04;0.93;;;0.43;;
13706;SDS011;6925;47.816;13.072;2022-11-14T10:47:53;0.70;;;0.40;;
13706;SDS011;6925;47.816;13.072;2022-11-14T10:50:25;0.88;;;0.50;;
13706;SDS011;6925;47.816;13.072;2022-11-14T10:53:23;0.98;;;0.60;;
13706;SDS011;6925;47.816;13.072;2022-11-14T10:56:02;2.92;;;0.50;;
13706;SDS011;6925;47.816;13.072;2022-11-14T10:58:34;0.73;;;0.40;;
13706;SDS011;6925;47.816;13.072;2022-11-14T16:53:54;7.88;;;4.15;;
13706;SDS011;6925;47.816;13.072;2022-11-14T17:03:07;6.55;;;3.70;;
13706;SDS011;6925;47.816;13.072;2022-11-14T17:05:42;7.25;;;4.03;;
13706;SDS011;6925;47.816;13.072;2022-11-14T17:24:04;8.77;;;4.63;;
13706;SDS011;6925;47.816;13.072;2022-11-14T17:26:32;9.43;;;5.35;;
13706;SDS011;6925;47.816;13.072;2022-11-14T17:29:22;6.15;;;3.78;;
13706;SDS011;6925;47.816;13.072;2022-11-14T17:31:49;7.43;;;3.88;;
13706;SDS011;6925;47.816;13.072;2022-11-14T17:34:19;7.85;;;4.40;;
13706;SDS011;6925;47.816;13.072;2022-11-14T18:05:26;6.47;;;3.65;;
13706;SDS011;6925;47.816;13.072;2022-11-14T18:20:56;8.80;;;4.97;;
13706;SDS011;6925;47.816;13.072;2022-11-14T18:23:24;8.43;;;4.97;;
13706;SDS011;6925;47.816;13.072;2022-11-14T18:25:59;8.02;;;4.95;;
13706;SDS011;6925;47.816;13.072;2022-11-14T18:28:29;8.05;;;4.65;;
13706;SDS011;6925;47.816;13.072;2022-11-14T18:30:56;9.13;;;4.57;;
13706;SDS011;6925;47.816;13.072;2022-11-14T18:33:24;6.90;;;4.60;;
13706;SDS011;6925;47.816;13.072;2022-11-14T18:40:51;8.40;;;4.47;;
13706;SDS011;6925;47.816;13.072;2022-11-14T18:43:22;10.20;;;5.18;;
13706;SDS011;6925;47.816;13.072;2022-11-14T18:45:49;11.25;;;4.97;;
13706;SDS011;6925;47.816;13.072;2022-11-14T18:48:16;8.88;;;4.93;;
13706;SDS011;6925;47.816;13.072;2022-11-14T18:50:44;8.65;;;5.03;;
13706;SDS011;6925;47.816;13.072;2022-11-14T18:53:15;10.13;;;5.90;;
13706;SDS011;6925;47.816;13.072;2022-11-14T18:55:42;7.97;;;4.95;;
13706;SDS011;6925;47.816;13.072;2022-11-14T18:58:10;9.75;;;4.90;;
13706;SDS011;6925;47.816;13.072;2022-11-14T19:00:39;8.90;;;4.47;;
13706;SDS011;6925;47.816;13.072;2022-11-14T19:03:07;10.73;;;6.03;;
13706;SDS011;6925;47.816;13.072;2022-11-14T19:05:35;9.30;;;5.18;;
13706;SDS011;6925;47.816;13.072;2022-11-14T19:08:02;9.20;;;5.32;;
13706;SDS011;6925;47.816;13.072;2022-11-14T19:10:33;9.38;;;5.43;;
13706;SDS011;6925;47.816;13.072;2022-11-14T19:13:00;10.95;;;6.47;;
13706;SDS011;6925;47.816;13.072;2022-11-14T19:15:28;12.18;;;6.47;;
13706;SDS011;6925;47.816;13.072;2022-11-14T19:17:57;15.65;;;7.03;;
13706;SDS011;6925;47.816;13.072;2022-11-14T19:20:27;10.32;;;5.68;;
13706;SDS011;6925;47.816;13.072;2022-11-14T19:23:09;13.77;;;7.60;;
13706;SDS011;6925;47.816;13.072;2022-11-14T19:25:39;13.75;;;6.53;;
13706;SDS011;6925;47.816;13.072;2022-11-14T19:28:07;11.23;;;6.43;;
13706;SDS011;6925;47.816;13.072;2022-11-14T19:30:34;11.60;;;5.90;;
13706;SDS011;6925;47.816;13.072;2022-11-14T19:33:09;14.00;;;7.65;;
13706;SDS011;6925;47.816;13.072;2022-11-14T19:35:37;12.38;;;6.60;;
13706;SDS011;6925;47.816;13.072;2022-11-14T19:38:10;10.02;;;5.88;;
13706;SDS011;6925;47.816;13.072;2022-11-14T19:40:50;9.70;;;5.25;;
13706;SDS011;6925;47.816;13.072;2022-11-14T19:43:44;13.20;;;4.93;;
13706;SDS011;6925;47.816;13.072;2022-11-14T19:46:26;9.45;;;5.30;;
13706;SDS011;6925;47.816;13.072;2022-11-14T19:48:54;9.55;;;5.32;;
13706;SDS011;6925;47.816;13.072;2022-11-14T19:58:04;11.93;;;5.70;;
13706;SDS011;6925;47.816;13.072;2022-11-14T20:00:32;13.32;;;6.15;;
13706;SDS011;6925;47.816;13.072;2022-11-14T20:03:36;10.40;;;5.95;;
13706;SDS011;6925;47.816;13.072;2022-11-14T20:06:14;11.73;;;6.03;;
13706;SDS011;6925;47.816;13.072;2022-11-14T20:08:48;12.13;;;6.32;;
13706;SDS011;6925;47.816;13.072;2022-11-14T20:11:28;10.82;;;6.20;;
13706;SDS011;6925;47.816;13.072;2022-11-14T20:13:57;11.63;;;6.25;;
13706;SDS011;6925;47.816;13.072;2022-11-14T20:16:27;14.40;;;7.32;;
13706;SDS011;6925;47.816;13.072;2022-11-14T20:18:57;11.48;;;6.35;;
13706;SDS011;6925;47.816;13.072;2022-11-14T20:21:27;13.20;;;6.28;;
13706;SDS011;6925;47.816;13.072;2022-11-14T20:23:57;12.40;;;5.70;;
13706;SDS011;6925;47.816;13.072;2022-11-14T20:26:27;9.57;;;5.70;;
13706;SDS011;6925;47.816;13.072;2022-11-14T20:28:54;8.48;;;5.03;;
13706;SDS011;6925;47.816;13.072;2022-11-14T20:31:27;10.38;;;5.07;;
13706;SDS011;6925;47.816;13.072;2022-11-14T20:33:56;8.88;;;4.90;;
13706;SDS011;6925;47.816;13.072;2022-11-14T20:36:27;9.15;;;5.38;;
13706;SDS011;6925;47.816;13.072;2022-11-14T20:38:54;10.77;;;5.88;;
13706;SDS011;6925;47.816;13.072;2022-11-14T20:41:23;10.05;;;5.65;;
13706;SDS011;6925;47.816;13.072;2022-11-14T20:43:50;8.90;;;5.18;;
13706;SDS011;6925;47.816;13.072;2022-11-14T20:46:19;8.93;;;5.05;;
13706;SDS011;6925;47.816;13.072;2022-11-14T20:48:48;9.80;;;5.13;;
13706;SDS011;6925;47.816;13.072;2022-11-14T20:51:17;10.50;;;5.63;;
13706;SDS011;6925;47.816;13.072;2022-11-14T20:53:46;11.10;;;5.68;;
13706;SDS011;6925;47.816;13.072;2022-11-14T20:56:14;9.27;;;4.50;;
13706;SDS011;6925;47.816;13.072;2022-11-14T20:58:42;11.80;;;6.03;;
13706;SDS011;6925;47.816;13.072;2022-11-14T21:01:11;9.73;;;5.03;;
13706;SDS011;6925;47.816;13.072;2022-11-14T21:03:39;10.13;;;4.82;;
13706;SDS011;6925;47.816;13.072;2022-11-14T21:06:08;8.73;;;5.05;;
13706;SDS011;6925;47.816;13.072;2022-11-14T21:08:37;8.90;;;5.07;;
13706;SDS011;6925;47.816;13.072;2022-11-14T21:11:05;8.43;;;5.10;;
13706;SDS011;6925;47.816;13.072;2022-11-14T21:13:34;8.82;;;4.60;;
13706;SDS011;6925;47.816;13.072;2022-11-14T21:16:20;9.73;;;4.78;;
13706;SDS011;6925;47.816;13.072;2022-11-14T21:18:50;11.63;;;5.03;;
13706;SDS011;6925;47.816;13.072;2022-11-14T21:21:23;8.70;;;4.53;;
13706;SDS011;6925;47.816;13.072;2022-11-14T21:26:20;9.80;;;5.60;;
13706;SDS011;6925;47.816;13.072;2022-11-14T21:28:50;11.30;;;5.38;;
13706;SDS011;6925;47.816;13.072;2022-11-14T21:31:19;10.07;;;5.38;;
13706;SDS011;6925;47.816;13.072;2022-11-14T21:33:49;9.43;;;5.35;;
13706;SDS011;6925;47.816;13.072;2022-11-14T21:36:18;13.48;;;5.25;;
13706;SDS011;6925;47.816;13.072;2022-11-14T21:38:46;12.00;;;5.10;;
13706;SDS011;6925;47.816;13.072;2022-11-14T21:44:01;9.40;;;5.68;;
13706;SDS011;6925;47.816;13.072;2022-11-14T21:46:29;9.20;;;5.55;;
13706;SDS011;6925;47.816;13.072;2022-11-14T21:48:56;10.38;;;5.82;;
13706;SDS011;6925;47.816;13.072;2022-11-14T21:53:53;8.63;;;5.05;;
13706;SDS011;6925;47.816;13.072;2022-11-14T21:56:22;11.18;;;5.60;;
13706;SDS011;6925;47.816;13.072;2022-11-14T21:58:51;8.98;;;5.20;;
13706;SDS011;6925;47.816;13.072;2022-11-14T22:01:37;9.05;;;5.45;;
13706;SDS011;6925;47.816;13.072;2022-11-14T22:04:21;6.95;;;4.72;;
13706;SDS011;6925;47.816;13.072;2022-11-14T22:06:51;9.85;;;4.68;;
13706;SDS011;6925;47.816;13.072;2022-11-14T22:09:24;9.38;;;5.38;;
13706;SDS011;6925;47.816;13.072;2022-11-14T22:11:53;11.77;;;5.25;;
13706;SDS011;6925;47.816;13.072;2022-11-14T22:14:20;9.07;;;4.85;;
13706;SDS011;6925;47.816;13.072;2022-11-14T22:16:47;8.15;;;5.00;;
13706;SDS011;6925;47.816;13.072;2022-11-14T22:19:15;7.50;;;4.07;;
13706;SDS011;6925;47.816;13.072;2022-11-14T22:21:44;8.35;;;4.75;;
13706;SDS011;6925;47.816;13.072;2022-11-14T22:24:13;8.70;;;4.50;;
13706;SDS011;6925;47.816;13.072;2022-11-14T22:26:41;8.63;;;4.93;;
13706;SDS011;6925;47.816;13.072;2022-11-14T22:29:08;9.00;;;5.07;;
13706;SDS011;6925;47.816;13.072;2022-11-14T22:34:03;7.50;;;4.50;;
13706;SDS011;6925;47.816;13.072;2022-11-14T22:36:30;8.90;;;5.28;;
13706;SDS011;6925;47.816;13.072;2022-11-14T22:38:58;8.70;;;5.03;;
13706;SDS011;6925;47.816;13.072;2022-11-14T22:41:28;10.13;;;4.88;;
13706;SDS011;6925;47.816;13.072;2022-11-14T22:43:56;8.20;;;4.53;;
13706;SDS011;6925;47.816;13.072;2022-11-14T22:46:24;7.78;;;4.40;;
13706;SDS011;6925;47.816;13.072;2022-11-14T22:48:52;7.25;;;4.03;;
13706;SDS011;6925;47.816;13.072;2022-11-14T22:51:21;6.55;;;3.67;;
13706;SDS011;6925;47.816;13.072;2022-11-14T22:53:50;8.07;;;3.83;;
13706;SDS011;6925;47.816;13.072;2022-11-14T22:56:19;7.45;;;3.80;;
13706;SDS011;6925;47.816;13.072;2022-11-14T22:58:49;7.43;;;3.83;;
13706;SDS011;6925;47.816;13.072;2022-11-14T23:01:18;9.52;;;3.92;;
13706;SDS011;6925;47.816;13.072;2022-11-14T23:03:47;7.57;;;3.20;;
13706;SDS011;6925;47.816;13.072;2022-11-14T23:06:20;6.38;;;3.75;;
13706;SDS011;6925;47.816;13.072;2022-11-14T23:08:47;6.50;;;3.35;;
13706;SDS011;6925;47.816;13.072;2022-11-14T23:11:16;7.85;;;4.10;;
13706;SDS011;6925;47.816;13.072;2022-11-14T23:13:45;6.75;;;3.38;;
13706;SDS011;6925;47.816;13.072;2022-11-14T23:16:17;7.30;;;4.13;;
13706;SDS011;6925;47.816;13.072;2022-11-14T23:18:45;7.00;;;3.80;;
13706;SDS011;6925;47.816;13.072;2022-11-14T23:21:13;6.30;;;3.83;;
13706;SDS011;6925;47.816;13.072;2022-11-14T23:23:42;5.47;;;3.13;;
13706;SDS011;6925;47.816;13.072;2022-11-14T23:26:12;7.78;;;3.40;;
13706;SDS011;6925;47.816;13.072;2022-11-14T23:28:41;6.00;;;3.58;;
13706;SDS011;6925;47.816;13.072;2022-11-14T23:31:10;5.75;;;3.17;;
13706;SDS011;6925;47.816;13.072;2022-11-14T23:33:39;6.25;;;3.00;;
13706;SDS011;6925;47.816;13.072;2022-11-14T23:36:07;5.13;;;3.03;;
13706;SDS011;6925;47.816;13.072;2022-11-14T23:38:35;6.43;;;3.35;;
13706;SDS011;6925;47.816;13.072;2022-11-14T23:41:02;6.38;;;2.83;;
13706;SDS011;6925;47.816;13.072;2022-11-14T23:45:57;6.32;;;3.80;;
13706;SDS011;6925;47.816;13.072;2022-11-14T23:48:24;6.13;;;3.78;;
13706;SDS011;6925;47.816;13.072;2022-11-14T23:50:54;8.02;;;3.50;;
13706;SDS011;6925;47.816;13.072;2022-11-14T23:53:21;7.63;;;3.22;;
13706;SDS011;6925;47.816;13.072;2022-11-14T23:55:52;7.10;;;3.92;;
13706;SDS011;6925;47.816;13.072;2022-11-14T23:58:20;6.93;;;3.50;;
